sensor_id;sensor_type;location;lat;lon;timestamp;pressure;altitude;pressure_sealevel;temperature;humidity
53758;BME280;39674;59.860;30.672;2024-03-23T00:55:18;98899.41;;;1.83;100.00
53758;BME280;39674;59.860;30.672;2024-03-23T00:57:46;98790.38;;;1.18;100.00
53758;BME280;39674;59.860;30.672;2024-03-23T01:00:23;98790.13;;;1.24;100.00
53758;BME280;39674;59.860;30.672;2024-03-23T01:02:57;98886.38;;;1.83;100.00
53758;BME280;39674;59.860;30.672;2024-03-23T01:05:33;98805.03;;;1.39;100.00
53758;BME280;39674;59.860;30.672;2024-03-23T01:08:06;98758.25;;;1.19;100.00
53758;BME280;39674;59.860;30.672;2024-03-23T01:10:35;98821.50;;;1.59;100.00
53758;BME280;39674;59.860;30.672;2024-03-23T01:13:03;98780.63;;;1.42;100.00
53758;BME280;39674;59.860;30.672;2024-03-23T01:15:34;98851.50;;;1.87;100.00
53758;BME280;39674;59.860;30.672;2024-03-23T01:18:01;98757.22;;;1.23;100.00
53758;BME280;39674;59.860;30.672;2024-03-23T01:20:31;98777.84;;;1.47;100.00
53758;BME280;39674;59.860;30.672;2024-03-23T01:22:59;98792.81;;;1.60;100.00
53758;BME280;39674;59.860;30.672;2024-03-23T01:25:28;98786.28;;;1.52;100.00
53758;BME280;39674;59.860;30.672;2024-03-23T01:27:56;98723.13;;;1.29;100.00
53758;BME280;39674;59.860;30.672;2024-03-23T01:30:25;98786.50;;;1.66;100.00
53758;BME280;39674;59.860;30.672;2024-03-23T01:32:57;98776.09;;;1.66;100.00
53758;BME280;39674;59.860;30.672;2024-03-23T01:35:26;98797.88;;;1.83;100.00
53758;BME280;39674;59.860;30.672;2024-03-23T01:37:55;98745.53;;;1.51;100.00
53758;BME280;39674;59.860;30.672;2024-03-23T01:40:24;98763.22;;;1.63;100.00
53758;BME280;39674;59.860;30.672;2024-03-23T01:42:58;98736.22;;;1.47;100.00
53758;BME280;39674;59.860;30.672;2024-03-23T01:45:27;98782.41;;;1.80;100.00
53758;BME280;39674;59.860;30.672;2024-03-23T01:47:56;98718.63;;;1.52;100.00
53758;BME280;39674;59.860;30.672;2024-03-23T01:50:26;98759.13;;;1.76;100.00
53758;BME280;39674;59.860;30.672;2024-03-23T01:52:54;98774.09;;;1.90;100.00
53758;BME280;39674;59.860;30.672;2024-03-23T01:55:26;98771.28;;;1.95;100.00
53758;BME280;39674;59.860;30.672;2024-03-23T01:57:56;98739.97;;;1.77;100.00
53758;BME280;39674;59.860;30.672;2024-03-23T02:00:26;98743.28;;;1.81;100.00
53758;BME280;39674;59.860;30.672;2024-03-23T02:02:57;98749.75;;;1.91;100.00
53758;BME280;39674;59.860;30.672;2024-03-23T02:05:26;98667.78;;;1.44;100.00
53758;BME280;39674;59.860;30.672;2024-03-23T02:07:54;98723.31;;;1.82;100.00
53758;BME280;39674;59.860;30.672;2024-03-23T02:10:23;98737.56;;;1.92;100.00
53758;BME280;39674;59.860;30.672;2024-03-23T02:12:51;98741.09;;;1.91;100.00
53758;BME280;39674;59.860;30.672;2024-03-23T02:15:20;98734.97;;;1.92;100.00
53758;BME280;39674;59.860;30.672;2024-03-23T02:17:48;98731.59;;;1.90;100.00
53758;BME280;39674;59.860;30.672;2024-03-23T02:20:19;98696.50;;;1.80;100.00
53758;BME280;39674;59.860;30.672;2024-03-23T02:22:46;98675.78;;;1.59;100.00
53758;BME280;39674;59.860;30.672;2024-03-23T02:25:16;98622.41;;;1.33;100.00
53758;BME280;39674;59.860;30.672;2024-03-23T02:27:43;98706.13;;;1.77;100.00
53758;BME280;39674;59.860;30.672;2024-03-23T02:30:13;98714.00;;;1.95;100.00
53758;BME280;39674;59.860;30.672;2024-03-23T02:32:41;98654.84;;;1.62;100.00
53758;BME280;39674;59.860;30.672;2024-03-23T02:35:11;98679.41;;;1.74;100.00
53758;BME280;39674;59.860;30.672;2024-03-23T02:37:38;98681.97;;;1.75;100.00
53758;BME280;39674;59.860;30.672;2024-03-23T02:40:08;98666.47;;;1.72;100.00
53758;BME280;39674;59.860;30.672;2024-03-23T02:42:38;98646.25;;;1.60;100.00
53758;BME280;39674;59.860;30.672;2024-03-23T02:45:07;98676.47;;;1.82;100.00
53758;BME280;39674;59.860;30.672;2024-03-23T02:47:35;98665.34;;;1.78;100.00
53758;BME280;39674;59.860;30.672;2024-03-23T02:50:03;98661.16;;;1.75;100.00
53758;BME280;39674;59.860;30.672;2024-03-23T02:52:33;98594.50;;;1.36;100.00
53758;BME280;39674;59.860;30.672;2024-03-23T02:55:01;98642.44;;;1.67;100.00
53758;BME280;39674;59.860;30.672;2024-03-23T02:57:30;98644.59;;;1.76;100.00
53758;BME280;39674;59.860;30.672;2024-03-23T02:59:58;98596.63;;;1.46;100.00
53758;BME280;39674;59.860;30.672;2024-03-23T03:02:27;98621.63;;;1.67;100.00
53758;BME280;39674;59.860;30.672;2024-03-23T03:04:55;98616.03;;;1.57;100.00
53758;BME280;39674;59.860;30.672;2024-03-23T03:07:24;98668.97;;;1.93;100.00
53758;BME280;39674;59.860;30.672;2024-03-23T03:09:52;98671.09;;;2.02;100.00
53758;BME280;39674;59.860;30.672;2024-03-23T03:12:21;98669.38;;;2.03;100.00
53758;BME280;39674;59.860;30.672;2024-03-23T03:14:49;98616.41;;;1.67;100.00
53758;BME280;39674;59.860;30.672;2024-03-23T03:17:20;98631.28;;;1.83;100.00
53758;BME280;39674;59.860;30.672;2024-03-23T03:19:47;98622.72;;;1.81;100.00
53758;BME280;39674;59.860;30.672;2024-03-23T03:22:16;98603.22;;;1.53;100.00
53758;BME280;39674;59.860;30.672;2024-03-23T03:24:44;98627.31;;;1.75;100.00
53758;BME280;39674;59.860;30.672;2024-03-23T03:27:13;98584.09;;;1.54;100.00
53758;BME280;39674;59.860;30.672;2024-03-23T03:29:41;98665.63;;;2.08;100.00
53758;BME280;39674;59.860;30.672;2024-03-23T03:32:10;98652.53;;;2.10;100.00
53758;BME280;39674;59.860;30.672;2024-03-23T03:34:40;98607.63;;;1.87;100.00
53758;BME280;39674;59.860;30.672;2024-03-23T03:37:09;98622.25;;;1.90;100.00
53758;BME280;39674;59.860;30.672;2024-03-23T03:39:37;98597.81;;;1.75;100.00
53758;BME280;39674;59.860;30.672;2024-03-23T03:42:06;98648.91;;;2.13;100.00
53758;BME280;39674;59.860;30.672;2024-03-23T03:44:34;98645.09;;;2.20;100.00
53758;BME280;39674;59.860;30.672;2024-03-23T03:47:04;98631.47;;;2.15;100.00
53758;BME280;39674;59.860;30.672;2024-03-23T03:49:33;98604.50;;;1.98;100.00
53758;BME280;39674;59.860;30.672;2024-03-23T03:52:03;98645.78;;;2.23;100.00
53758;BME280;39674;59.860;30.672;2024-03-23T03:54:31;98641.56;;;2.21;100.00
53758;BME280;39674;59.860;30.672;2024-03-23T03:57:00;98637.88;;;2.25;100.00
53758;BME280;39674;59.860;30.672;2024-03-23T03:59:29;98597.28;;;2.03;100.00
53758;BME280;39674;59.860;30.672;2024-03-23T04:01:58;98602.28;;;2.08;100.00
53758;BME280;39674;59.860;30.672;2024-03-23T04:04:26;98545.94;;;1.72;100.00
53758;BME280;39674;59.860;30.672;2024-03-23T04:06:59;98638.34;;;2.33;100.00
53758;BME280;39674;59.860;30.672;2024-03-23T04:09:29;98598.84;;;2.07;100.00
53758;BME280;39674;59.860;30.672;2024-03-23T04:11:58;98633.28;;;2.30;100.00
53758;BME280;39674;59.860;30.672;2024-03-23T04:14:26;98563.97;;;1.92;100.00
53758;BME280;39674;59.860;30.672;2024-03-23T04:16:55;98625.31;;;2.33;100.00
53758;BME280;39674;59.860;30.672;2024-03-23T04:19:23;98555.41;;;1.90;100.00
53758;BME280;39674;59.860;30.672;2024-03-23T04:21:52;98569.72;;;1.99;100.00
53758;BME280;39674;59.860;30.672;2024-03-23T04:24:19;98637.84;;;2.43;100.00
53758;BME280;39674;59.860;30.672;2024-03-23T04:26:50;98600.63;;;2.23;100.00
53758;BME280;39674;59.860;30.672;2024-03-23T04:29:18;98626.44;;;2.45;100.00
53758;BME280;39674;59.860;30.672;2024-03-23T04:31:53;98554.19;;;1.98;100.00
53758;BME280;39674;59.860;30.672;2024-03-23T04:34:23;98632.28;;;2.50;100.00
53758;BME280;39674;59.860;30.672;2024-03-23T04:36:52;98545.69;;;1.94;100.00
53758;BME280;39674;59.860;30.672;2024-03-23T04:39:19;98559.31;;;1.99;100.00
53758;BME280;39674;59.860;30.672;2024-03-23T04:41:50;98633.94;;;2.51;100.00
53758;BME280;39674;59.860;30.672;2024-03-23T04:44:21;98621.31;;;2.44;100.00
53758;BME280;39674;59.860;30.672;2024-03-23T04:46:49;98630.59;;;2.49;100.00
53758;BME280;39674;59.860;30.672;2024-03-23T04:49:18;98633.28;;;2.48;100.00
53758;BME280;39674;59.860;30.672;2024-03-23T04:51:46;98624.59;;;2.47;100.00
53758;BME280;39674;59.860;30.672;2024-03-23T04:54:18;98568.00;;;2.16;100.00
53758;BME280;39674;59.860;30.672;2024-03-23T04:56:52;98606.75;;;2.39;100.00
53758;BME280;39674;59.860;30.672;2024-03-23T04:59:21;98581.56;;;2.22;100.00
53758;BME280;39674;59.860;30.672;2024-03-23T05:01:49;98582.59;;;2.20;100.00
53758;BME280;39674;59.860;30.672;2024-03-23T05:04:17;98616.09;;;2.44;100.00
53758;BME280;39674;59.860;30.672;2024-03-23T05:06:45;98574.84;;;2.18;100.00
53758;BME280;39674;59.860;30.672;2024-03-23T05:09:13;98589.31;;;2.24;100.00
53758;BME280;39674;59.860;30.672;2024-03-23T05:11:40;98584.09;;;2.24;100.00
53758;BME280;39674;59.860;30.672;2024-03-23T05:14:12;98596.13;;;2.27;100.00
53758;BME280;39674;59.860;30.672;2024-03-23T05:16:43;98643.22;;;2.57;100.00
53758;BME280;39674;59.860;30.672;2024-03-23T05:19:11;98648.09;;;2.63;100.00
53758;BME280;39674;59.860;30.672;2024-03-23T05:21:39;98658.53;;;2.63;100.00
53758;BME280;39674;59.860;30.672;2024-03-23T05:24:08;98646.72;;;2.56;100.00
53758;BME280;39674;59.860;30.672;2024-03-23T05:26:36;98628.22;;;2.45;100.00
53758;BME280;39674;59.860;30.672;2024-03-23T05:29:05;98663.91;;;2.60;100.00
53758;BME280;39674;59.860;30.672;2024-03-23T05:31:39;98583.31;;;2.22;100.00
53758;BME280;39674;59.860;30.672;2024-03-23T05:34:09;98587.63;;;2.23;100.00
53758;BME280;39674;59.860;30.672;2024-03-23T05:36:37;98658.44;;;2.65;100.00
53758;BME280;39674;59.860;30.672;2024-03-23T05:39:07;98648.28;;;2.60;100.00
53758;BME280;39674;59.860;30.672;2024-03-23T05:41:34;98653.31;;;2.63;100.00
53758;BME280;39674;59.860;30.672;2024-03-23T05:44:03;98648.88;;;2.65;100.00
53758;BME280;39674;59.860;30.672;2024-03-23T05:46:30;98651.31;;;2.68;100.00
53758;BME280;39674;59.860;30.672;2024-03-23T05:49:02;98658.06;;;2.72;100.00
53758;BME280;39674;59.860;30.672;2024-03-23T05:51:29;98650.06;;;2.76;100.00
53758;BME280;39674;59.860;30.672;2024-03-23T05:53:58;98652.53;;;2.79;100.00
53758;BME280;39674;59.860;30.672;2024-03-23T05:56:26;98624.81;;;2.60;100.00
53758;BME280;39674;59.860;30.672;2024-03-23T05:58:55;98662.78;;;2.82;100.00
53758;BME280;39674;59.860;30.672;2024-03-23T06:01:23;98596.78;;;2.48;100.00
53758;BME280;39674;59.860;30.672;2024-03-23T06:03:58;98664.31;;;2.86;100.00
53758;BME280;39674;59.860;30.672;2024-03-23T06:06:27;98641.78;;;2.85;100.00
53758;BME280;39674;59.860;30.672;2024-03-23T06:08:58;98654.31;;;2.94;100.00
53758;BME280;39674;59.860;30.672;2024-03-23T06:11:26;98598.81;;;2.59;100.00
53758;BME280;39674;59.860;30.672;2024-03-23T06:13:56;98635.19;;;2.78;100.00
53758;BME280;39674;59.860;30.672;2024-03-23T06:16:24;98629.88;;;2.79;100.00
53758;BME280;39674;59.860;30.672;2024-03-23T06:18:54;98638.38;;;2.83;100.00
53758;BME280;39674;59.860;30.672;2024-03-23T06:21:22;98635.09;;;2.79;100.00
53758;BME280;39674;59.860;30.672;2024-03-23T06:23:53;98627.97;;;2.83;100.00
53758;BME280;39674;59.860;30.672;2024-03-23T06:26:22;98602.78;;;2.66;100.00
53758;BME280;39674;59.860;30.672;2024-03-23T06:28:53;98654.38;;;2.93;100.00
53758;BME280;39674;59.860;30.672;2024-03-23T06:31:22;98611.13;;;2.72;100.00
53758;BME280;39674;59.860;30.672;2024-03-23T06:33:55;98664.25;;;3.03;100.00
53758;BME280;39674;59.860;30.672;2024-03-23T06:36:23;98633.03;;;2.86;100.00
53758;BME280;39674;59.860;30.672;2024-03-23T06:38:54;98666.53;;;3.10;100.00
53758;BME280;39674;59.860;30.672;2024-03-23T06:41:22;98623.59;;;2.83;100.00
53758;BME280;39674;59.860;30.672;2024-03-23T06:43:51;98671.50;;;3.14;100.00
53758;BME280;39674;59.860;30.672;2024-03-23T06:46:19;98587.91;;;2.68;100.00
53758;BME280;39674;59.860;30.672;2024-03-23T06:48:48;98673.13;;;3.17;100.00
53758;BME280;39674;59.860;30.672;2024-03-23T06:51:16;98645.31;;;3.00;100.00
53758;BME280;39674;59.860;30.672;2024-03-23T06:53:45;98644.63;;;2.96;100.00
53758;BME280;39674;59.860;30.672;2024-03-23T06:56:13;98665.44;;;3.14;100.00
53758;BME280;39674;59.860;30.672;2024-03-23T06:58:42;98640.94;;;3.00;100.00
53758;BME280;39674;59.860;30.672;2024-03-23T07:01:10;98580.69;;;2.73;100.00
53758;BME280;39674;59.860;30.672;2024-03-23T07:03:39;98659.88;;;3.20;100.00
53758;BME280;39674;59.860;30.672;2024-03-23T07:06:09;98622.78;;;2.99;100.00
53758;BME280;39674;59.860;30.672;2024-03-23T07:08:39;98613.34;;;2.96;100.00
53758;BME280;39674;59.860;30.672;2024-03-23T07:11:08;98672.28;;;3.32;100.00
53758;BME280;39674;59.860;30.672;2024-03-23T07:13:39;98630.19;;;3.07;100.00
53758;BME280;39674;59.860;30.672;2024-03-23T07:16:06;98663.44;;;3.19;100.00
53758;BME280;39674;59.860;30.672;2024-03-23T07:18:35;98664.53;;;3.31;100.00
53758;BME280;39674;59.860;30.672;2024-03-23T07:21:03;98680.03;;;3.34;100.00
53758;BME280;39674;59.860;30.672;2024-03-23T07:23:33;98669.84;;;3.29;100.00
53758;BME280;39674;59.860;30.672;2024-03-23T07:26:02;98631.28;;;3.02;100.00
53758;BME280;39674;59.860;30.672;2024-03-23T07:28:33;98648.19;;;3.11;100.00
53758;BME280;39674;59.860;30.672;2024-03-23T07:31:05;98672.63;;;3.26;100.00
53758;BME280;39674;59.860;30.672;2024-03-23T07:33:38;98668.72;;;3.33;100.00
53758;BME280;39674;59.860;30.672;2024-03-23T07:36:09;98645.53;;;3.13;100.00
53758;BME280;39674;59.860;30.672;2024-03-23T07:38:40;98665.38;;;3.31;100.00
53758;BME280;39674;59.860;30.672;2024-03-23T07:41:09;98676.50;;;3.35;100.00
53758;BME280;39674;59.860;30.672;2024-03-23T07:43:39;98684.25;;;3.36;100.00
53758;BME280;39674;59.860;30.672;2024-03-23T07:46:12;98669.06;;;3.27;100.00
53758;BME280;39674;59.860;30.672;2024-03-23T07:48:41;98635.47;;;3.21;100.00
53758;BME280;39674;59.860;30.672;2024-03-23T07:51:16;98629.69;;;3.16;100.00
53758;BME280;39674;59.860;30.672;2024-03-23T07:53:46;98597.25;;;2.88;100.00
53758;BME280;39674;59.860;30.672;2024-03-23T07:56:15;98682.56;;;3.35;100.00
53758;BME280;39674;59.860;30.672;2024-03-23T07:58:46;98700.38;;;3.43;100.00
53758;BME280;39674;59.860;30.672;2024-03-23T08:01:15;98685.59;;;3.44;100.00
53758;BME280;39674;59.860;30.672;2024-03-23T08:03:46;98660.50;;;3.25;100.00
53758;BME280;39674;59.860;30.672;2024-03-23T08:06:17;98623.78;;;3.12;100.00
53758;BME280;39674;59.860;30.672;2024-03-23T08:08:54;98705.94;;;3.53;100.00
53758;BME280;39674;59.860;30.672;2024-03-23T08:11:32;98699.06;;;3.52;100.00
53758;BME280;39674;59.860;30.672;2024-03-23T08:14:07;98700.25;;;3.46;100.00
53758;BME280;39674;59.860;30.672;2024-03-23T08:16:37;98653.00;;;3.19;100.00
53758;BME280;39674;59.860;30.672;2024-03-23T08:19:09;98617.06;;;2.92;100.00
53758;BME280;39674;59.860;30.672;2024-03-23T08:21:38;98627.25;;;2.97;100.00
53758;BME280;39674;59.860;30.672;2024-03-23T08:24:08;98611.84;;;2.92;100.00
53758;BME280;39674;59.860;30.672;2024-03-23T08:26:36;98711.34;;;3.50;100.00
53758;BME280;39674;59.860;30.672;2024-03-23T08:29:10;98670.94;;;3.25;100.00
53758;BME280;39674;59.860;30.672;2024-03-23T08:31:42;98711.03;;;3.56;100.00
53758;BME280;39674;59.860;30.672;2024-03-23T08:34:13;98693.84;;;3.52;100.00
53758;BME280;39674;59.860;30.672;2024-03-23T08:36:43;98679.34;;;3.30;100.00
53758;BME280;39674;59.860;30.672;2024-03-23T08:39:22;98616.97;;;2.94;100.00
53758;BME280;39674;59.860;30.672;2024-03-23T08:41:57;98636.81;;;2.96;100.00
53758;BME280;39674;59.860;30.672;2024-03-23T08:44:28;98650.88;;;2.94;100.00
53758;BME280;39674;59.860;30.672;2024-03-23T08:46:59;98729.53;;;3.35;100.00
53758;BME280;39674;59.860;30.672;2024-03-23T08:49:28;98666.97;;;2.84;100.00
53758;BME280;39674;59.860;30.672;2024-03-23T08:52:07;98638.72;;;2.77;100.00
53758;BME280;39674;59.860;30.672;2024-03-23T08:57:34;98744.66;;;3.13;100.00
53758;BME280;39674;59.860;30.672;2024-03-23T09:00:27;98692.88;;;2.71;100.00
53758;BME280;39674;59.860;30.672;2024-03-23T09:03:40;98662.84;;;2.47;100.00
53758;BME280;39674;59.860;30.672;2024-03-23T09:06:37;98678.50;;;2.47;100.00
53758;BME280;39674;59.860;30.672;2024-03-23T09:09:31;98688.91;;;2.47;100.00
53758;BME280;39674;59.860;30.672;2024-03-23T09:12:30;98645.78;;;2.23;100.00
53758;BME280;39674;59.860;30.672;2024-03-23T09:16:07;98662.09;;;2.45;100.00
53758;BME280;39674;59.860;30.672;2024-03-23T09:18:51;98665.47;;;2.47;100.00
53758;BME280;39674;59.860;30.672;2024-03-23T09:24:38;98709.75;;;2.64;100.00
53758;BME280;39674;59.860;30.672;2024-03-23T09:27:06;98705.75;;;2.57;100.00
53758;BME280;39674;59.860;30.672;2024-03-23T09:31:26;98676.34;;;2.37;100.00
53758;BME280;39674;59.860;30.672;2024-03-23T09:37:05;98717.63;;;2.45;100.00
53758;BME280;39674;59.860;30.672;2024-03-23T09:39:35;98710.97;;;2.39;100.00
53758;BME280;39674;59.860;30.672;2024-03-23T09:42:09;98761.94;;;2.63;100.00
53758;BME280;39674;59.860;30.672;2024-03-23T09:44:37;98705.47;;;2.28;100.00
53758;BME280;39674;59.860;30.672;2024-03-23T09:47:08;98717.84;;;2.23;100.00
53758;BME280;39674;59.860;30.672;2024-03-23T09:49:40;98785.47;;;2.61;100.00
53758;BME280;39674;59.860;30.672;2024-03-23T09:52:12;98789.00;;;2.60;100.00
53758;BME280;39674;59.860;30.672;2024-03-23T09:54:42;98769.34;;;2.35;100.00
53758;BME280;39674;59.860;30.672;2024-03-23T09:57:11;98818.28;;;2.65;100.00
53758;BME280;39674;59.860;30.672;2024-03-23T09:59:39;98772.91;;;2.34;100.00
53758;BME280;39674;59.860;30.672;2024-03-23T10:02:08;98733.69;;;2.01;100.00
53758;BME280;39674;59.860;30.672;2024-03-23T10:04:40;98737.91;;;2.03;100.00
53758;BME280;39674;59.860;30.672;2024-03-23T10:07:15;98749.72;;;2.11;100.00
53758;BME280;39674;59.860;30.672;2024-03-23T10:09:45;98760.91;;;2.13;100.00
53758;BME280;39674;59.860;30.672;2024-03-23T10:12:16;98836.06;;;2.57;100.00
53758;BME280;39674;59.860;30.672;2024-03-23T10:14:45;98821.16;;;2.41;100.00
53758;BME280;39674;59.860;30.672;2024-03-23T10:17:17;98807.69;;;2.33;100.00
53758;BME280;39674;59.860;30.672;2024-03-23T10:19:46;98828.38;;;2.36;100.00
53758;BME280;39674;59.860;30.672;2024-03-23T10:22:21;98735.13;;;1.89;100.00
53758;BME280;39674;59.860;30.672;2024-03-23T10:24:52;98789.84;;;2.06;100.00
53758;BME280;39674;59.860;30.672;2024-03-23T10:27:21;98821.13;;;2.24;100.00
53758;BME280;39674;59.860;30.672;2024-03-23T10:29:51;98851.47;;;2.44;100.00
53758;BME280;39674;59.860;30.672;2024-03-23T10:32:26;98753.44;;;1.68;100.00
53758;BME280;39674;59.860;30.672;2024-03-23T10:35:15;98765.88;;;1.81;100.00
53758;BME280;39674;59.860;30.672;2024-03-23T10:37:58;98828.47;;;2.16;100.00
53758;BME280;39674;59.860;30.672;2024-03-23T10:40:29;98853.47;;;2.20;100.00
53758;BME280;39674;59.860;30.672;2024-03-23T10:42:59;98860.22;;;2.24;100.00
53758;BME280;39674;59.860;30.672;2024-03-23T10:45:39;98765.84;;;1.63;100.00
53758;BME280;39674;59.860;30.672;2024-03-23T10:48:09;98816.47;;;1.94;100.00
53758;BME280;39674;59.860;30.672;2024-03-23T10:50:40;98798.44;;;1.70;100.00
53758;BME280;39674;59.860;30.672;2024-03-23T10:53:14;98788.97;;;1.69;100.00
53758;BME280;39674;59.860;30.672;2024-03-23T10:55:45;98844.75;;;2.02;100.00
53758;BME280;39674;59.860;30.672;2024-03-23T10:58:19;98778.19;;;1.58;100.00
53758;BME280;39674;59.860;30.672;2024-03-23T11:00:49;98826.38;;;1.86;100.00
53758;BME280;39674;59.860;30.672;2024-03-23T11:03:31;98804.34;;;1.74;100.00
53758;BME280;39674;59.860;30.672;2024-03-23T11:06:00;98844.19;;;1.95;100.00
53758;BME280;39674;59.860;30.672;2024-03-23T11:08:36;98799.97;;;1.55;100.00
53758;BME280;39674;59.860;30.672;2024-03-23T11:11:18;98863.19;;;1.97;100.00
53758;BME280;39674;59.860;30.672;2024-03-23T11:13:49;98813.44;;;1.65;100.00
53758;BME280;39674;59.860;30.672;2024-03-23T11:16:23;98882.63;;;2.09;100.00
53758;BME280;39674;59.860;30.672;2024-03-23T11:18:52;98855.13;;;1.83;100.00
53758;BME280;39674;59.860;30.672;2024-03-23T11:21:55;98908.91;;;2.22;100.00
53758;BME280;39674;59.860;30.672;2024-03-23T11:24:27;98870.06;;;1.98;100.00
53758;BME280;39674;59.860;30.672;2024-03-23T11:26:54;98868.66;;;1.91;100.00
53758;BME280;39674;59.860;30.672;2024-03-23T11:29:28;98905.06;;;2.12;100.00
53758;BME280;39674;59.860;30.672;2024-03-23T11:31:57;98839.81;;;1.76;100.00
53758;BME280;39674;59.860;30.672;2024-03-23T11:34:29;98919.50;;;2.19;100.00
53758;BME280;39674;59.860;30.672;2024-03-23T11:37:04;98895.00;;;2.04;100.00
53758;BME280;39674;59.860;30.672;2024-03-23T11:39:36;98838.41;;;1.69;100.00
53758;BME280;39674;59.860;30.672;2024-03-23T11:42:05;98916.25;;;2.14;100.00
53758;BME280;39674;59.860;30.672;2024-03-23T11:44:38;98924.84;;;2.16;100.00
53758;BME280;39674;59.860;30.672;2024-03-23T11:47:11;98897.94;;;1.96;100.00
53758;BME280;39674;59.860;30.672;2024-03-23T11:49:42;98841.31;;;1.63;100.00
53758;BME280;39674;59.860;30.672;2024-03-23T11:52:10;98919.00;;;2.11;100.00
53758;BME280;39674;59.860;30.672;2024-03-23T11:54:42;98867.13;;;1.87;100.00
53758;BME280;39674;59.860;30.672;2024-03-23T11:57:11;98908.94;;;2.03;100.00
53758;BME280;39674;59.860;30.672;2024-03-23T11:59:41;98837.84;;;1.63;100.00
53758;BME280;39674;59.860;30.672;2024-03-23T12:02:10;98891.06;;;1.95;100.00
53758;BME280;39674;59.860;30.672;2024-03-23T12:04:42;98939.16;;;2.26;100.00
53758;BME280;39674;59.860;30.672;2024-03-23T12:07:13;98928.81;;;2.24;100.00
53758;BME280;39674;59.860;30.672;2024-03-23T12:10:07;98867.13;;;1.87;100.00
53758;BME280;39674;59.860;30.672;2024-03-23T12:12:34;98946.81;;;2.29;100.00
53758;BME280;39674;59.860;30.672;2024-03-23T12:15:06;98889.50;;;1.91;100.00
53758;BME280;39674;59.860;30.672;2024-03-23T12:17:35;98940.34;;;2.19;100.00
53758;BME280;39674;59.860;30.672;2024-03-23T12:20:09;98932.66;;;2.16;100.00
53758;BME280;39674;59.860;30.672;2024-03-23T12:22:42;98945.38;;;2.22;100.00
53758;BME280;39674;59.860;30.672;2024-03-23T12:25:15;98851.91;;;1.58;100.00
53758;BME280;39674;59.860;30.672;2024-03-23T12:27:43;98964.69;;;2.18;100.00
53758;BME280;39674;59.860;30.672;2024-03-23T12:30:13;98895.88;;;1.84;100.00
53758;BME280;39674;59.860;30.672;2024-03-23T12:32:42;98856.31;;;1.56;100.00
53758;BME280;39674;59.860;30.672;2024-03-23T12:35:19;98962.09;;;2.18;100.00
53758;BME280;39674;59.860;30.672;2024-03-23T12:37:48;98915.41;;;1.94;100.00
53758;BME280;39674;59.860;30.672;2024-03-23T12:40:20;98961.56;;;2.09;100.00
53758;BME280;39674;59.860;30.672;2024-03-23T12:42:48;98910.88;;;1.79;100.00
53758;BME280;39674;59.860;30.672;2024-03-23T12:45:34;98909.56;;;1.89;100.00
53758;BME280;39674;59.860;30.672;2024-03-23T12:48:10;98864.13;;;1.56;100.00
53758;BME280;39674;59.860;30.672;2024-03-23T12:50:39;98886.38;;;1.64;100.00
53758;BME280;39674;59.860;30.672;2024-03-23T12:53:10;98936.25;;;1.94;100.00
53758;BME280;39674;59.860;30.672;2024-03-23T12:55:49;98916.34;;;1.72;100.00
53758;BME280;39674;59.860;30.672;2024-03-23T12:58:19;98968.63;;;2.07;100.00
53758;BME280;39674;59.860;30.672;2024-03-23T13:00:54;98906.34;;;1.63;100.00
53758;BME280;39674;59.860;30.672;2024-03-23T13:03:27;98925.13;;;1.70;100.00
53758;BME280;39674;59.860;30.672;2024-03-23T13:05:56;98949.66;;;1.85;100.00
53758;BME280;39674;59.860;30.672;2024-03-23T13:08:26;98924.63;;;1.62;100.00
53758;BME280;39674;59.860;30.672;2024-03-23T13:11:11;98906.75;;;1.54;100.00
53758;BME280;39674;59.860;30.672;2024-03-23T13:13:39;98911.88;;;1.55;100.00
53758;BME280;39674;59.860;30.672;2024-03-23T13:16:12;98973.69;;;1.91;100.00
53758;BME280;39674;59.860;30.672;2024-03-23T13:18:40;98934.91;;;1.65;100.00
53758;BME280;39674;59.860;30.672;2024-03-23T13:21:16;98907.84;;;1.48;100.00
53758;BME280;39674;59.860;30.672;2024-03-23T13:23:48;98896.09;;;1.39;100.00
53758;BME280;39674;59.860;30.672;2024-03-23T13:26:23;98948.38;;;1.74;100.00
53758;BME280;39674;59.860;30.672;2024-03-23T13:29:07;99001.59;;;2.08;100.00
53758;BME280;39674;59.860;30.672;2024-03-23T13:31:37;98942.66;;;1.66;100.00
53758;BME280;39674;59.860;30.672;2024-03-23T13:34:06;98926.06;;;1.48;100.00
53758;BME280;39674;59.860;30.672;2024-03-23T13:36:36;98964.63;;;1.80;100.00
53758;BME280;39674;59.860;30.672;2024-03-23T13:39:19;99009.31;;;2.10;100.00
53758;BME280;39674;59.860;30.672;2024-03-23T13:42:06;98921.56;;;1.52;100.00
53758;BME280;39674;59.860;30.672;2024-03-23T13:44:57;98913.00;;;1.50;100.00
53758;BME280;39674;59.860;30.672;2024-03-23T13:47:54;98933.59;;;1.54;100.00
53758;BME280;39674;59.860;30.672;2024-03-23T13:50:41;98912.66;;;1.57;100.00
53758;BME280;39674;59.860;30.672;2024-03-23T13:53:10;98931.94;;;1.53;100.00
53758;BME280;39674;59.860;30.672;2024-03-23T13:55:47;98927.94;;;1.44;100.00
53758;BME280;39674;59.860;30.672;2024-03-23T13:58:18;98932.16;;;1.47;100.00
53758;BME280;39674;59.860;30.672;2024-03-23T14:00:58;98928.72;;;1.47;100.00
53758;BME280;39674;59.860;30.672;2024-03-23T14:03:32;99040.31;;;2.16;100.00
53758;BME280;39674;59.860;30.672;2024-03-23T14:06:07;98983.91;;;1.75;100.00
53758;BME280;39674;59.860;30.672;2024-03-23T14:08:39;99031.25;;;2.04;100.00
53758;BME280;39674;59.860;30.672;2024-03-23T14:11:12;98954.88;;;1.64;100.00
53758;BME280;39674;59.860;30.672;2024-03-23T14:13:42;98995.34;;;1.92;100.00
53758;BME280;39674;59.860;30.672;2024-03-23T14:16:13;98950.06;;;1.55;100.00
53758;BME280;39674;59.860;30.672;2024-03-23T14:18:42;98966.00;;;1.68;100.00